Time;durP1;ratioP1;P1;durP2;ratioP2;P2;SDS_P1;SDS_P2;PMS_P1;PMS_P2;Temp;Humidity;BMP_temperature;BMP_pressure;BME280_temperature;BME280_humidity;BME280_pressure;Samples;Min_cycle;Max_cycle;Signal;HPM_P1;HPM_P2
2023/03/12 00:01:11;;;;;;;24.70;23.00;;;;;;;;;;5077137;28;20210;-79
2023/03/12 00:03:39;;;;;;;23.67;21.95;;;;;;;;;;5076701;28;20694;-79
2023/03/12 00:06:07;;;;;;;23.35;21.85;;;;;;;;;;5077198;28;20249;-79
2023/03/12 00:08:34;;;;;;;24.17;22.27;;;;;;;;;;5077504;28;20198;-79
2023/03/12 00:11:01;;;;;;;25.05;23.25;;;;;;;;;;5077688;28;20207;-79
2023/03/12 00:13:28;;;;;;;24.30;22.77;;;;;;;;;;5077221;28;20273;-79
2023/03/12 00:15:55;;;;;;;24.60;22.60;;;;;;;;;;5076785;28;20219;-79
2023/03/12 00:18:21;;;;;;;23.27;21.77;;;;;;;;;;5077383;28;20203;-79
2023/03/12 00:20:55;;;;;;;26.70;24.67;;;;;;;;;;5077277;28;20281;-79
2023/03/12 00:23:22;;;;;;;24.55;22.60;;;;;;;;;;5076540;28;20208;-78
2023/03/12 00:25:49;;;;;;;24.73;23.13;;;;;;;;;;5076994;28;20239;-79
2023/03/12 00:28:16;;;;;;;24.52;22.73;;;;;;;;;;5077000;28;20208;-79
2023/03/12 00:30:43;;;;;;;26.05;24.05;;;;;;;;;;5076239;28;20263;-79
2023/03/12 00:33:10;;;;;;;25.13;23.40;;;;;;;;;;5075901;28;20196;-79
2023/03/12 00:35:38;;;;;;;25.17;23.00;;;;;;;;;;5077006;28;20227;-79
2023/03/12 00:38:06;;;;;;;24.58;22.75;;;;;;;;;;5077010;28;20203;-79
2023/03/12 00:40:33;;;;;;;23.27;21.70;;;;;;;;;;5076936;28;20203;-79
2023/03/12 00:43:00;;;;;;;24.52;22.58;;;;;;;;;;5076165;28;20583;-79
2023/03/12 00:45:27;;;;;;;24.13;22.48;;;;;;;;;;5075754;28;20218;-80
2023/03/12 00:47:54;;;;;;;23.55;22.05;;;;;;;;;;5076178;28;20648;-78
2023/03/12 00:50:21;;;;;;;22.83;21.40;;;;;;;;;;5075671;28;20675;-79
2023/03/12 00:52:48;;;;;;;23.95;22.15;;;;;;;;;;5076006;28;20209;-79
2023/03/12 00:55:16;;;;;;;23.38;21.80;;;;;;;;;;5076055;28;20201;-79
2023/03/12 00:57:43;;;;;;;24.77;22.48;;;;;;;;;;5076236;28;20229;-79
2023/03/12 01:00:12;;;;;;;23.95;22.15;;;;;;;;;;5076355;28;20559;-79
2023/03/12 01:02:40;;;;;;;24.05;22.10;;;;;;;;;;5075346;28;20211;-79
2023/03/12 01:05:08;;;;;;;22.80;21.45;;;;;;;;;;5075766;28;20210;-79
2023/03/12 01:07:36;;;;;;;23.55;21.95;;;;;;;;;;5075244;28;20208;-79
2023/03/12 01:10:03;;;;;;;23.83;22.27;;;;;;;;;;5075428;28;20219;-78
2023/03/12 01:12:31;;;;;;;23.65;21.85;;;;;;;;;;5075211;28;20213;-79
2023/03/12 01:14:58;;;;;;;24.35;22.80;;;;;;;;;;5075806;28;20644;-79
2023/03/12 01:17:25;;;;;;;23.27;21.88;;;;;;;;;;5075963;28;20246;-79
2023/03/12 01:19:52;;;;;;;23.25;21.73;;;;;;;;;;5074820;28;20204;-79
2023/03/12 01:22:19;;;;;;;23.52;22.00;;;;;;;;;;5075120;28;20249;-79
2023/03/12 01:24:46;;;;;;;23.33;21.73;;;;;;;;;;5075233;28;20227;-79
2023/03/12 01:27:13;;;;;;;24.48;22.30;;;;;;;;;;5074389;28;20219;-79
2023/03/12 01:29:41;;;;;;;24.48;22.88;;;;;;;;;;5075851;28;20212;-79
2023/03/12 01:32:08;;;;;;;24.50;22.52;;;;;;;;;;5074715;28;20204;-79
2023/03/12 01:34:35;;;;;;;23.15;21.65;;;;;;;;;;5075429;28;20251;-78
2023/03/12 01:37:03;;;;;;;25.17;23.27;;;;;;;;;;5075516;28;20223;-79
2023/03/12 01:39:29;;;;;;;24.98;23.27;;;;;;;;;;5074656;28;20658;-79
2023/03/12 01:41:56;;;;;;;23.52;21.92;;;;;;;;;;5074507;28;20603;-79
2023/03/12 01:44:23;;;;;;;24.73;22.92;;;;;;;;;;5075373;28;20224;-79
2023/03/12 01:46:52;;;;;;;26.08;23.77;;;;;;;;;;5075527;28;20226;-78
2023/03/12 01:49:20;;;;;;;24.80;23.10;;;;;;;;;;5075261;28;20268;-78
2023/03/12 01:51:50;;;;;;;24.00;22.33;;;;;;;;;;5074834;28;20216;-79
2023/03/12 01:54:20;;;;;;;24.75;22.75;;;;;;;;;;5075319;28;20225;-79
2023/03/12 01:56:47;;;;;;;24.73;22.80;;;;;;;;;;5074233;28;20216;-79
2023/03/12 01:59:16;;;;;;;23.55;22.02;;;;;;;;;;5074442;28;20208;-79
2023/03/12 02:01:43;;;;;;;23.52;21.80;;;;;;;;;;5074308;28;20220;-79
2023/03/12 02:04:12;;;;;;;23.45;22.05;;;;;;;;;;5074721;28;20226;-79
2023/03/12 02:06:43;;;;;;;24.80;23.10;;;;;;;;;;5074759;28;20273;-79
2023/03/12 02:09:11;;;;;;;23.35;21.70;;;;;;;;;;5075165;28;20188;-79
2023/03/12 02:11:38;;;;;;;22.15;20.70;;;;;;;;;;5074620;28;20214;-79
2023/03/12 02:14:05;;;;;;;22.67;21.38;;;;;;;;;;5075216;28;20203;-79
2023/03/12 02:16:32;;;;;;;23.15;21.77;;;;;;;;;;5074510;28;20273;-78
2023/03/12 02:19:01;;;;;;;22.73;21.42;;;;;;;;;;5074903;28;20726;-79
2023/03/12 02:21:32;;;;;;;24.25;22.60;;;;;;;;;;5074119;28;20609;-79
2023/03/12 02:24:02;;;;;;;24.75;23.13;;;;;;;;;;5075141;28;20248;-79
2023/03/12 02:26:31;;;;;;;23.88;21.98;;;;;;;;;;5074262;28;20297;-79
2023/03/12 02:28:59;;;;;;;24.02;22.40;;;;;;;;;;5074853;28;20207;-78
2023/03/12 02:31:28;;;;;;;24.30;22.80;;;;;;;;;;5075128;28;20222;-79
2023/03/12 02:33:57;;;;;;;24.08;22.40;;;;;;;;;;5078903;28;20229;-79
2023/03/12 02:36:24;;;;;;;23.17;21.77;;;;;;;;;;5077748;28;20251;-78
2023/03/12 02:38:51;;;;;;;24.45;22.92;;;;;;;;;;5078404;28;20207;-79
2023/03/12 02:41:20;;;;;;;23.75;22.17;;;;;;;;;;5078462;28;20260;-79
2023/03/12 02:43:51;;;;;;;24.20;22.35;;;;;;;;;;5078371;28;20233;-78
2023/03/12 02:46:18;;;;;;;23.48;21.80;;;;;;;;;;5077780;28;20250;-79
2023/03/12 02:48:45;;;;;;;24.38;22.70;;;;;;;;;;5077833;28;20192;-78
2023/03/12 02:51:12;;;;;;;25.05;23.27;;;;;;;;;;5077640;28;20238;-79
2023/03/12 02:53:40;;;;;;;23.80;22.13;;;;;;;;;;5077230;28;20655;-78
2023/03/12 02:56:07;;;;;;;22.95;21.40;;;;;;;;;;5078235;28;20223;-79
2023/03/12 02:58:35;;;;;;;24.42;22.83;;;;;;;;;;5077889;28;20725;-79
2023/03/12 03:01:03;;;;;;;25.10;23.00;;;;;;;;;;5078314;28;20299;-79
2023/03/12 03:03:30;;;;;;;25.58;23.83;;;;;;;;;;5077197;28;20276;-79
2023/03/12 03:05:57;;;;;;;26.90;24.90;;;;;;;;;;5077205;28;20228;-79
2023/03/12 03:08:24;;;;;;;27.73;25.52;;;;;;;;;;5077368;28;20664;-78
2023/03/12 03:10:52;;;;;;;25.35;23.75;;;;;;;;;;5077803;28;20207;-78
2023/03/12 03:13:19;;;;;;;26.95;24.83;;;;;;;;;;5076812;28;20672;-79
2023/03/12 03:15:45;;;;;;;26.45;24.40;;;;;;;;;;5077238;28;20282;-79
2023/03/12 03:18:14;;;;;;;25.75;23.90;;;;;;;;;;5077697;28;20206;-79
2023/03/12 03:20:43;;;;;;;24.85;23.25;;;;;;;;;;5077326;28;20259;-78
2023/03/12 03:23:10;;;;;;;25.98;23.92;;;;;;;;;;5076932;28;20279;-79
2023/03/12 03:25:37;;;;;;;24.45;22.65;;;;;;;;;;5076305;28;20224;-78
2023/03/12 03:28:04;;;;;;;24.20;22.50;;;;;;;;;;5077402;28;20238;-79
2023/03/12 03:30:31;;;;;;;23.60;22.13;;;;;;;;;;5077130;28;20228;-79
2023/03/12 03:32:58;;;;;;;23.27;21.73;;;;;;;;;;5080118;28;20212;-78
2023/03/12 03:35:26;;;;;;;24.50;22.60;;;;;;;;;;5085525;28;20591;-79
2023/03/12 03:37:53;;;;;;;23.88;22.23;;;;;;;;;;5084486;28;20265;-79
2023/03/12 03:40:20;;;;;;;23.63;22.02;;;;;;;;;;5077149;28;20237;-79
2023/03/12 03:42:47;;;;;;;22.10;20.70;;;;;;;;;;5076272;28;20654;-79
2023/03/12 03:45:14;;;;;;;23.63;22.10;;;;;;;;;;5076728;28;20265;-80
2023/03/12 03:47:41;;;;;;;23.27;21.77;;;;;;;;;;5076245;28;20222;-79
2023/03/12 03:50:09;;;;;;;23.70;22.27;;;;;;;;;;5076963;28;20370;-79
2023/03/12 03:52:37;;;;;;;24.10;22.45;;;;;;;;;;5076199;28;20205;-79
2023/03/12 03:55:05;;;;;;;22.80;21.40;;;;;;;;;;5076793;28;20203;-78
2023/03/12 03:57:32;;;;;;;22.67;21.02;;;;;;;;;;5076131;28;20208;-79
2023/03/12 03:59:59;;;;;;;23.38;21.33;;;;;;;;;;5076774;28;20203;-79
2023/03/12 04:02:27;;;;;;;22.50;21.20;;;;;;;;;;5075689;28;20204;-79
2023/03/12 04:04:57;;;;;;;21.58;20.38;;;;;;;;;;5076663;28;20228;-78
2023/03/12 04:07:24;;;;;;;24.05;22.35;;;;;;;;;;5076960;28;20271;-78
2023/03/12 04:09:52;;;;;;;24.20;22.33;;;;;;;;;;5076842;28;20207;-78
2023/03/12 04:12:19;;;;;;;23.25;21.90;;;;;;;;;;5075465;28;20716;-79
2023/03/12 04:14:46;;;;;;;22.98;21.45;;;;;;;;;;5076465;28;20207;-79
2023/03/12 04:17:13;;;;;;;22.88;21.48;;;;;;;;;;5075400;28;20224;-78
2023/03/12 04:19:40;;;;;;;23.48;21.83;;;;;;;;;;5075543;28;20204;-76
2023/03/12 04:22:07;;;;;;;22.38;20.98;;;;;;;;;;5074341;28;20253;-76
2023/03/12 04:24:34;;;;;;;21.85;20.55;;;;;;;;;;5074176;28;20227;-76
2023/03/12 04:27:02;;;;;;;21.48;20.20;;;;;;;;;;5075261;28;20264;-78
2023/03/12 04:29:30;;;;;;;21.67;20.17;;;;;;;;;;5076760;28;20257;-79
2023/03/12 04:31:57;;;;;;;21.60;20.05;;;;;;;;;;5075013;28;20681;-79
2023/03/12 04:34:24;;;;;;;22.52;21.23;;;;;;;;;;5076493;28;20199;-78
2023/03/12 04:36:51;;;;;;;21.92;20.67;;;;;;;;;;5076281;28;20695;-78
2023/03/12 04:39:18;;;;;;;22.13;20.73;;;;;;;;;;5076381;28;20212;-79
2023/03/12 04:41:46;;;;;;;23.58;21.80;;;;;;;;;;5076148;28;20574;-79
2023/03/12 04:44:14;;;;;;;21.25;19.80;;;;;;;;;;5076269;28;20583;-79
2023/03/12 04:46:41;;;;;;;23.27;21.80;;;;;;;;;;5075334;28;20226;-79
2023/03/12 04:49:08;;;;;;;22.90;21.17;;;;;;;;;;5075931;28;20266;-79
2023/03/12 04:51:35;;;;;;;22.65;21.10;;;;;;;;;;5075264;28;20571;-79
2023/03/12 04:54:02;;;;;;;22.17;20.90;;;;;;;;;;5076199;28;20203;-79
2023/03/12 04:56:29;;;;;;;21.35;20.00;;;;;;;;;;5074616;28;20235;-78
2023/03/12 04:58:56;;;;;;;22.00;20.60;;;;;;;;;;5075497;28;20245;-79
2023/03/12 05:01:25;;;;;;;21.52;20.23;;;;;;;;;;5075274;28;20203;-79
2023/03/12 05:03:52;;;;;;;22.35;20.95;;;;;;;;;;5076028;28;20255;-79
2023/03/12 05:06:20;;;;;;;22.00;20.70;;;;;;;;;;5075029;28;20257;-79
2023/03/12 05:08:47;;;;;;;22.70;21.10;;;;;;;;;;5075381;28;20183;-79
2023/03/12 05:11:14;;;;;;;22.10;20.85;;;;;;;;;;5075390;28;20616;-79
2023/03/12 05:13:41;;;;;;;21.95;20.65;;;;;;;;;;5075612;28;20226;-79
2023/03/12 05:16:08;;;;;;;22.30;21.02;;;;;;;;;;5075473;28;20647;-79
2023/03/12 05:18:37;;;;;;;22.55;21.10;;;;;;;;;;5075532;28;20219;-79
2023/03/12 05:21:05;;;;;;;21.52;20.20;;;;;;;;;;5074830;28;20203;-79
2023/03/12 05:23:33;;;;;;;21.42;20.13;;;;;;;;;;5074912;28;20211;-79
2023/03/12 05:26:00;;;;;;;21.30;19.95;;;;;;;;;;5075071;28;20249;-79
2023/03/12 05:28:27;;;;;;;20.45;19.35;;;;;;;;;;5075572;28;20254;-79
2023/03/12 05:30:55;;;;;;;21.35;19.98;;;;;;;;;;5075671;28;20689;-79
2023/03/12 05:33:22;;;;;;;22.17;20.88;;;;;;;;;;5074773;28;20205;-79
2023/03/12 05:35:50;;;;;;;22.00;20.67;;;;;;;;;;5074750;28;20221;-79
2023/03/12 05:38:18;;;;;;;22.08;20.58;;;;;;;;;;5074967;28;20186;-79
2023/03/12 05:40:51;;;;;;;21.42;19.90;;;;;;;;;;5075237;28;20253;-78
2023/03/12 05:43:18;;;;;;;22.95;21.45;;;;;;;;;;5075025;28;20259;-79
2023/03/12 05:45:45;;;;;;;23.95;22.60;;;;;;;;;;5074908;28;20691;-78
2023/03/12 05:48:12;;;;;;;21.80;20.40;;;;;;;;;;5074370;28;20745;-78
2023/03/12 05:50:39;;;;;;;22.20;20.80;;;;;;;;;;5075292;28;20663;-78
2023/03/12 05:53:08;;;;;;;23.20;21.80;;;;;;;;;;5074399;28;20199;-79
2023/03/12 05:55:35;;;;;;;23.33;21.73;;;;;;;;;;5075088;28;20227;-79
2023/03/12 05:58:02;;;;;;;22.55;21.15;;;;;;;;;;5075157;28;20209;-78
2023/03/12 06:00:29;;;;;;;22.50;21.00;;;;;;;;;;5074398;28;20280;-79
2023/03/12 06:02:56;;;;;;;21.45;20.15;;;;;;;;;;5074331;28;20214;-78
2023/03/12 06:05:23;;;;;;;21.35;20.05;;;;;;;;;;5074565;28;20799;-79
2023/03/12 06:07:50;;;;;;;22.23;20.80;;;;;;;;;;5076806;28;20254;-77
2023/03/12 06:10:19;;;;;;;21.70;20.40;;;;;;;;;;5076776;28;20212;-76
2023/03/12 06:12:46;;;;;;;21.33;20.13;;;;;;;;;;5076135;28;20733;-76
2023/03/12 06:15:13;;;;;;;22.33;20.88;;;;;;;;;;5076636;28;20721;-76
2023/03/12 06:17:40;;;;;;;21.65;20.35;;;;;;;;;;5078176;28;20207;-76
2023/03/12 06:20:08;;;;;;;22.50;21.20;;;;;;;;;;5077204;28;20204;-76
2023/03/12 06:22:35;;;;;;;21.17;19.80;;;;;;;;;;5076499;28;20207;-76
2023/03/12 06:25:02;;;;;;;22.02;20.75;;;;;;;;;;5076831;28;20276;-76
2023/03/12 06:27:30;;;;;;;20.52;19.42;;;;;;;;;;5076365;28;20206;-76
2023/03/12 06:29:57;;;;;;;21.65;20.35;;;;;;;;;;5077238;28;20207;-76
2023/03/12 06:32:25;;;;;;;21.00;19.70;;;;;;;;;;5076418;28;20666;-76
2023/03/12 06:34:52;;;;;;;21.95;20.63;;;;;;;;;;5077106;28;20200;-76
2023/03/12 06:37:19;;;;;;;22.10;20.52;;;;;;;;;;5076296;28;20273;-76
2023/03/12 06:39:46;;;;;;;21.77;20.48;;;;;;;;;;5076447;28;20222;-76
2023/03/12 06:42:14;;;;;;;24.00;22.40;;;;;;;;;;5076417;28;20207;-76
2023/03/12 06:44:42;;;;;;;22.70;21.40;;;;;;;;;;5076764;28;20227;-76
2023/03/12 06:47:09;;;;;;;23.50;21.85;;;;;;;;;;5076037;28;20572;-77
2023/03/12 06:49:37;;;;;;;22.70;20.95;;;;;;;;;;5076576;28;20253;-76
2023/03/12 06:52:04;;;;;;;21.65;20.38;;;;;;;;;;5075939;28;20238;-76
2023/03/12 06:54:31;;;;;;;21.48;19.90;;;;;;;;;;5076469;28;20276;-76
2023/03/12 06:56:58;;;;;;;22.88;20.98;;;;;;;;;;5076549;28;20289;-76
2023/03/12 06:59:25;;;;;;;21.25;20.05;;;;;;;;;;5076583;28;20206;-76
2023/03/12 07:01:54;;;;;;;21.27;19.83;;;;;;;;;;5075904;28;20207;-77
2023/03/12 07:04:21;;;;;;;21.63;20.42;;;;;;;;;;5077002;28;20242;-76
2023/03/12 07:06:50;;;;;;;22.10;20.38;;;;;;;;;;5075317;28;20227;-76
2023/03/12 07:09:17;;;;;;;21.58;19.95;;;;;;;;;;5076277;28;20563;-77
2023/03/12 07:11:44;;;;;;;22.23;20.83;;;;;;;;;;5075784;28;20214;-77
2023/03/12 07:14:11;;;;;;;20.65;19.55;;;;;;;;;;5076378;28;20203;-76
2023/03/12 07:16:38;;;;;;;21.65;20.45;;;;;;;;;;5075672;28;20695;-77
2023/03/12 07:19:06;;;;;;;21.50;20.30;;;;;;;;;;5075180;28;20192;-76
2023/03/12 07:21:33;;;;;;;20.42;19.33;;;;;;;;;;5075413;28;20245;-77
2023/03/12 07:24:05;;;;;;;21.02;19.55;;;;;;;;;;5076133;28;20256;-76
2023/03/12 07:26:32;;;;;;;21.58;20.13;;;;;;;;;;5075373;28;20584;-77
2023/03/12 07:28:59;;;;;;;21.05;19.65;;;;;;;;;;5076055;28;20327;-76
2023/03/12 07:31:26;;;;;;;22.17;20.58;;;;;;;;;;5075569;28;20199;-77
2023/03/12 07:33:53;;;;;;;21.70;20.30;;;;;;;;;;5076062;28;20578;-76
2023/03/12 07:36:21;;;;;;;23.98;22.20;;;;;;;;;;5075106;28;20223;-77
2023/03/12 07:38:48;;;;;;;22.98;21.38;;;;;;;;;;5075953;28;20264;-76
2023/03/12 07:41:15;;;;;;;22.15;20.42;;;;;;;;;;5075362;28;20207;-77
2023/03/12 07:43:42;;;;;;;22.50;21.08;;;;;;;;;;5075067;28;20667;-76
2023/03/12 07:46:09;;;;;;;22.05;20.75;;;;;;;;;;5075356;28;20263;-76
2023/03/12 07:48:36;;;;;;;22.92;21.02;;;;;;;;;;5075507;28;20728;-76
2023/03/12 07:51:03;;;;;;;22.00;20.73;;;;;;;;;;5075927;28;20268;-76
2023/03/12 07:53:32;;;;;;;23.08;21.67;;;;;;;;;;5074813;28;20624;-76
2023/03/12 07:55:59;;;;;;;22.83;21.50;;;;;;;;;;5074550;28;20223;-77
2023/03/12 07:58:26;;;;;;;22.40;21.08;;;;;;;;;;5075383;28;20284;-76
2023/03/12 08:00:55;;;;;;;23.10;21.63;;;;;;;;;;5075424;28;20229;-76
2023/03/12 08:03:22;;;;;;;23.30;21.80;;;;;;;;;;5074855;28;20207;-76
2023/03/12 08:05:55;;;;;;;23.55;22.00;;;;;;;;;;5075100;28;20301;-76
2023/03/12 08:08:22;;;;;;;23.50;21.85;;;;;;;;;;5074624;28;20227;-76
2023/03/12 08:10:51;;;;;;;23.60;22.10;;;;;;;;;;5075152;28;20226;-76
2023/03/12 08:13:18;;;;;;;21.45;20.35;;;;;;;;;;5074173;28;20733;-76
2023/03/12 08:15:45;;;;;;;22.75;20.90;;;;;;;;;;5074988;28;20223;-76
2023/03/12 08:18:12;;;;;;;22.83;21.13;;;;;;;;;;5075079;28;20199;-76
2023/03/12 08:20:39;;;;;;;20.95;19.75;;;;;;;;;;5075156;28;20647;-76
2023/03/12 08:23:05;;;;;;;22.25;20.95;;;;;;;;;;5074122;28;20679;-76
2023/03/12 08:25:32;;;;;;;21.42;20.13;;;;;;;;;;5073706;28;20920;-76
2023/03/12 08:28:01;;;;;;;22.42;20.63;;;;;;;;;;5074623;28;20566;-76
2023/03/12 08:30:28;;;;;;;20.10;19.00;;;;;;;;;;5074561;28;20655;-76
2023/03/12 08:32:55;;;;;;;22.85;21.15;;;;;;;;;;5074381;28;20202;-76
2023/03/12 08:35:23;;;;;;;21.65;20.35;;;;;;;;;;5074609;28;20233;-77
2023/03/12 08:37:50;;;;;;;21.58;20.27;;;;;;;;;;5074011;28;20211;-77
2023/03/12 08:40:17;;;;;;;22.17;20.90;;;;;;;;;;5074840;28;20203;-76
2023/03/12 08:42:45;;;;;;;21.92;20.50;;;;;;;;;;5073984;28;20204;-77
2023/03/12 08:45:14;;;;;;;21.48;20.17;;;;;;;;;;5074776;28;20276;-80
2023/03/12 08:47:42;;;;;;;20.75;19.25;;;;;;;;;;5054882;28;20223;-80
2023/03/12 08:50:10;;;;;;;21.23;20.02;;;;;;;;;;5056528;28;20207;-80
2023/03/12 08:52:37;;;;;;;22.08;20.77;;;;;;;;;;5056217;28;20266;-80
2023/03/12 08:55:04;;;;;;;23.08;21.50;;;;;;;;;;5055677;28;20258;-80
2023/03/12 08:57:31;;;;;;;22.55;21.17;;;;;;;;;;5056479;28;20205;-79
2023/03/12 08:59:58;;;;;;;22.38;20.73;;;;;;;;;;5055156;28;20200;-81
2023/03/12 09:02:27;;;;;;;22.13;20.63;;;;;;;;;;5057859;28;20208;-88
2023/03/12 09:04:54;;;;;;;22.05;20.85;;;;;;;;;;5056412;28;20600;-78
2023/03/12 09:07:21;;;;;;;21.45;19.95;;;;;;;;;;5055300;28;20296;-80
2023/03/12 09:09:48;;;;;;;21.08;19.83;;;;;;;;;;5056846;28;20200;-79
2023/03/12 09:12:15;;;;;;;20.02;18.95;;;;;;;;;;5055284;28;20735;-80
2023/03/12 09:14:42;;;;;;;22.20;20.98;;;;;;;;;;5059306;28;20258;-88
2023/03/12 09:17:09;;;;;;;21.25;19.85;;;;;;;;;;5059538;28;20704;-81
2023/03/12 09:19:38;;;;;;;22.30;21.00;;;;;;;;;;5056996;28;20250;-81
2023/03/12 09:22:05;;;;;;;20.40;19.20;;;;;;;;;;5057216;28;20204;-82
2023/03/12 09:24:32;;;;;;;19.23;18.20;;;;;;;;;;5055863;28;20219;-79
2023/03/12 09:26:59;;;;;;;21.95;20.23;;;;;;;;;;5056631;28;20224;-81
2023/03/12 09:29:26;;;;;;;18.30;17.40;;;;;;;;;;5056665;28;20200;-85
2023/03/12 09:31:53;;;;;;;21.23;19.95;;;;;;;;;;5055591;28;20722;-83
2023/03/12 09:34:20;;;;;;;20.38;18.80;;;;;;;;;;5057166;28;20196;-82
2023/03/12 09:36:48;;;;;;;20.63;19.52;;;;;;;;;;5055441;28;20224;-81
2023/03/12 09:39:15;;;;;;;19.60;18.58;;;;;;;;;;5056134;28;20200;-82
2023/03/12 09:41:46;;;;;;;20.95;19.58;;;;;;;;;;5069848;28;20720;-87
2023/03/12 09:44:16;;;;;;;20.27;18.52;;;;;;;;;;5077014;28;20223;-81
2023/03/12 09:46:46;;;;;;;18.50;17.50;;;;;;;;;;5075044;28;20227;-81
2023/03/12 09:49:18;;;;;;;20.48;19.23;;;;;;;;;;5074993;28;20199;-78
2023/03/12 09:51:48;;;;;;;20.17;19.08;;;;;;;;;;5073954;28;20309;-81
2023/03/12 09:54:22;;;;;;;19.95;18.85;;;;;;;;;;5077176;28;20195;-78
2023/03/12 09:56:49;;;;;;;20.85;19.15;;;;;;;;;;5075184;28;20223;-77
2023/03/12 09:59:16;;;;;;;20.15;19.05;;;;;;;;;;5073885;28;20257;-78
2023/03/12 10:01:47;;;;;;;21.08;19.92;;;;;;;;;;5073293;28;20203;-77
2023/03/12 10:04:35;;;;;;;20.63;19.40;;;;;;;;;;5073791;28;20187;-78
2023/03/12 10:07:08;;;;;;;21.20;19.90;;;;;;;;;;5073413;28;20344;-78
2023/03/12 10:09:46;;;;;;;20.98;19.38;;;;;;;;;;5073095;28;20227;-78
2023/03/12 10:12:17;;;;;;;21.02;20.02;;;;;;;;;;5073363;28;20187;-78
2023/03/12 10:14:50;;;;;;;21.75;20.42;;;;;;;;;;5073877;28;20195;-78
2023/03/12 10:17:26;;;;;;;20.85;19.63;;;;;;;;;;5073624;28;20757;-77
2023/03/12 10:20:04;;;;;;;22.92;21.40;;;;;;;;;;5072974;28;20616;-77
2023/03/12 10:22:35;;;;;;;22.38;20.98;;;;;;;;;;5072526;28;20533;-77
2023/03/12 10:25:11;;;;;;;23.65;22.15;;;;;;;;;;5072943;28;20215;-78
2023/03/12 10:27:38;;;;;;;24.25;22.70;;;;;;;;;;5073049;28;20223;-77
2023/03/12 10:30:13;;;;;;;21.80;20.58;;;;;;;;;;5072669;28;20672;-77
2023/03/12 10:32:43;;;;;;;22.42;21.17;;;;;;;;;;5072417;28;20191;-77
2023/03/12 10:35:16;;;;;;;21.85;20.65;;;;;;;;;;5073110;28;20675;-77
2023/03/12 10:37:44;;;;;;;21.75;20.30;;;;;;;;;;5072732;28;20222;-79
2023/03/12 10:40:17;;;;;;;22.83;21.63;;;;;;;;;;5073662;28;20209;-87
2023/03/12 10:42:45;;;;;;;24.98;23.55;;;;;;;;;;5074312;28;20218;-82
2023/03/12 10:45:20;;;;;;;25.25;23.13;;;;;;;;;;5074180;28;20206;-83
2023/03/12 10:47:50;;;;;;;25.17;23.27;;;;;;;;;;5075565;28;20249;-82
2023/03/12 10:50:18;;;;;;;24.40;22.85;;;;;;;;;;5075773;28;20238;-80
2023/03/12 10:52:46;;;;;;;24.08;22.55;;;;;;;;;;5076478;28;20199;-79
2023/03/12 10:55:20;;;;;;;23.58;22.15;;;;;;;;;;5080082;28;20624;-79
2023/03/12 10:57:48;;;;;;;23.75;22.05;;;;;;;;;;5079991;28;20271;-86
2023/03/12 11:00:18;;;;;;;23.13;21.63;;;;;;;;;;5083384;28;20211;-81
2023/03/12 11:02:46;;;;;;;22.50;21.23;;;;;;;;;;5080108;28;20199;-80
2023/03/12 11:05:21;;;;;;;24.02;22.52;;;;;;;;;;5079993;28;20191;-83
2023/03/12 11:07:48;;;;;;;22.30;20.90;;;;;;;;;;5080332;28;20588;-80
2023/03/12 11:10:18;;;;;;;22.00;20.70;;;;;;;;;;5079772;28;20208;-82
2023/03/12 11:12:53;;;;;;;26.25;24.58;;;;;;;;;;5080909;28;20184;-82
2023/03/12 11:15:22;;;;;;;23.30;21.90;;;;;;;;;;5081590;28;20199;-79
2023/03/12 11:17:49;;;;;;;26.55;24.70;;;;;;;;;;5082572;28;20206;-81
2023/03/12 11:20:25;;;;;;;29.08;27.27;;;;;;;;;;5081123;28;20203;-80
2023/03/12 11:22:52;;;;;;;28.30;26.35;;;;;;;;;;5079264;28;20205;-77
2023/03/12 11:25:24;;;;;;;28.23;26.50;;;;;;;;;;5075502;28;20623;-77
2023/03/12 11:27:53;;;;;;;27.95;26.30;;;;;;;;;;5074443;28;20224;-77
2023/03/12 11:30:22;;;;;;;25.85;24.35;;;;;;;;;;5076645;28;20208;-77
2023/03/12 11:32:49;;;;;;;29.08;26.67;;;;;;;;;;5075118;28;20574;-77
2023/03/12 11:35:18;;;;;;;23.58;22.17;;;;;;;;;;5075673;28;20239;-77
2023/03/12 11:37:52;;;;;;;26.20;24.70;;;;;;;;;;5075485;28;20306;-77
2023/03/12 11:40:22;;;;;;;29.90;27.80;;;;;;;;;;5075951;28;20187;-77
2023/03/12 11:42:57;;;;;;;24.85;23.05;;;;;;;;;;5077373;28;20252;-76
2023/03/12 11:45:27;;;;;;;27.30;25.60;;;;;;;;;;5076280;28;20276;-75
2023/03/12 11:48:00;;;;;;;29.98;28.08;;;;;;;;;;5076115;28;20223;-77
2023/03/12 11:50:28;;;;;;;30.02;27.98;;;;;;;;;;5076465;28;20191;-75
2023/03/12 11:53:09;;;;;;;29.30;27.50;;;;;;;;;;5074845;28;20548;-75
2023/03/12 11:55:45;;;;;;;29.13;27.23;;;;;;;;;;5075484;28;20276;-75
2023/03/12 11:58:32;;;;;;;28.30;26.80;;;;;;;;;;5074574;28;20210;-76
2023/03/12 12:01:03;;;;;;;30.38;28.67;;;;;;;;;;5075467;28;20192;-75
2023/03/12 12:03:50;;;;;;;31.27;29.20;;;;;;;;;;5074332;28;20572;-76
2023/03/12 12:06:23;;;;;;;31.33;29.13;;;;;;;;;;5049950;28;20223;-76
2023/03/12 12:09:08;;;;;;;33.20;30.98;;;;;;;;;;5075506;28;20187;-77
2023/03/12 12:11:44;;;;;;;29.42;27.17;;;;;;;;;;5074171;28;20211;-75
2023/03/12 12:14:16;;;;;;;31.52;29.42;;;;;;;;;;5075534;28;20187;-75
2023/03/12 12:16:48;;;;;;;32.95;30.65;;;;;;;;;;5076519;28;20289;-76
2023/03/12 12:19:20;;;;;;;32.55;30.15;;;;;;;;;;5076326;28;20210;-75
2023/03/12 12:21:53;;;;;;;33.60;31.60;;;;;;;;;;5076665;28;20269;-75
2023/03/12 12:24:29;;;;;;;31.02;29.25;;;;;;;;;;5074329;28;20211;-76
2023/03/12 12:27:00;;;;;;;31.83;29.30;;;;;;;;;;5076232;28;20223;-76
2023/03/12 12:29:34;;;;;;;35.15;32.50;;;;;;;;;;5077085;28;20660;-78
2023/03/12 12:32:02;;;;;;;35.83;33.35;;;;;;;;;;5077939;28;20198;-82
2023/03/12 12:34:42;;;;;;;33.90;31.25;;;;;;;;;;5079411;28;20245;-82
2023/03/12 12:37:18;;;;;;;32.35;30.35;;;;;;;;;;5078106;28;20242;-82
2023/03/12 12:39:47;;;;;;;30.23;28.27;;;;;;;;;;5079181;28;20207;-82
2023/03/12 12:42:17;;;;;;;31.63;29.42;;;;;;;;;;5078500;28;20202;-82
2023/03/12 12:44:47;;;;;;;31.77;29.63;;;;;;;;;;5078482;28;20230;-81
2023/03/12 12:47:17;;;;;;;33.50;31.50;;;;;;;;;;5076589;28;20223;-80
2023/03/12 12:49:44;;;;;;;32.15;30.27;;;;;;;;;;5076905;28;20203;-80
2023/03/12 12:52:13;;;;;;;32.40;29.98;;;;;;;;;;5077280;28;20207;-79
2023/03/12 12:54:47;;;;;;;33.58;31.40;;;;;;;;;;5076430;28;20200;-79
2023/03/12 12:57:16;;;;;;;30.30;28.52;;;;;;;;;;5076874;28;20233;-79
2023/03/12 12:59:49;;;;;;;33.40;30.80;;;;;;;;;;5076834;28;20204;-79
2023/03/12 13:02:18;;;;;;;32.67;30.60;;;;;;;;;;5074307;28;20702;-74
2023/03/12 13:04:46;;;;;;;33.15;30.95;;;;;;;;;;5074654;28;20663;-78
2023/03/12 13:07:36;;;;;;;31.35;29.40;;;;;;;;;;5075139;28;20624;-73
2023/03/12 13:10:06;;;;;;;34.60;32.17;;;;;;;;;;5073988;28;20203;-73
2023/03/12 13:12:36;;;;;;;35.22;32.90;;;;;;;;;;5073113;28;20204;-74
2023/03/12 13:15:32;;;;;;;36.50;33.67;;;;;;;;;;5073835;28;20573;-73
2023/03/12 13:18:05;;;;;;;35.78;33.47;;;;;;;;;;5073696;28;20203;-79
2023/03/12 13:20:34;;;;;;;33.40;31.40;;;;;;;;;;5077487;28;20247;-79
2023/03/12 13:23:08;;;;;;;34.78;32.47;;;;;;;;;;5074584;28;20207;-74
2023/03/12 13:25:46;;;;;;;39.30;36.70;;;;;;;;;;5073683;28;20243;-74
2023/03/12 13:28:29;;;;;;;37.80;34.97;;;;;;;;;;5073616;28;20633;-74
2023/03/12 13:30:56;;;;;;;39.80;36.80;;;;;;;;;;5073406;28;20257;-74
2023/03/12 13:33:39;;;;;;;40.47;37.55;;;;;;;;;;5072888;28;20570;-73
2023/03/12 13:36:11;;;;;;;39.25;36.75;;;;;;;;;;5073634;28;20252;-74
2023/03/12 13:38:39;;;;;;;43.35;40.15;;;;;;;;;;5073909;28;20658;-74
2023/03/12 13:41:08;;;;;;;43.23;40.03;;;;;;;;;;5073761;28;20207;-74
2023/03/12 13:43:56;;;;;;;42.00;38.42;;;;;;;;;;5073446;28;20416;-75
2023/03/12 13:46:37;;;;;;;42.58;38.78;;;;;;;;;;5072925;28;20227;-74
2023/03/12 13:49:06;;;;;;;43.73;40.17;;;;;;;;;;5073470;28;20219;-74
2023/03/12 13:51:43;;;;;;;46.08;42.03;;;;;;;;;;5073378;28;20495;-74
2023/03/12 13:54:16;;;;;;;46.10;42.35;;;;;;;;;;5073457;28;20237;-74
2023/03/12 13:56:46;;;;;;;46.47;42.55;;;;;;;;;;5072825;28;20231;-74
2023/03/12 13:59:16;;;;;;;45.17;41.35;;;;;;;;;;5073424;28;20205;-74
2023/03/12 14:01:46;;;;;;;53.20;48.50;;;;;;;;;;5072771;28;20207;-74
2023/03/12 14:04:16;;;;;;;58.53;53.25;;;;;;;;;;5073503;28;20207;-74
2023/03/12 14:06:51;;;;;;;45.23;41.53;;;;;;;;;;5073308;28;20223;-74
2023/03/12 14:09:23;;;;;;;43.47;40.28;;;;;;;;;;5073530;28;20475;-74
2023/03/12 14:11:56;;;;;;;42.88;39.65;;;;;;;;;;5072854;28;20206;-74
2023/03/12 14:14:35;;;;;;;43.27;39.87;;;;;;;;;;5073274;28;20253;-74
2023/03/12 14:17:04;;;;;;;35.65;33.30;;;;;;;;;;5073022;28;20444;-74
2023/03/12 14:19:34;;;;;;;40.20;37.17;;;;;;;;;;5073265;28;20214;-74
2023/03/12 14:22:02;;;;;;;40.50;37.42;;;;;;;;;;5072181;28;20422;-74
2023/03/12 14:24:32;;;;;;;38.90;36.00;;;;;;;;;;5073029;28;20200;-73
2023/03/12 14:27:00;;;;;;;43.92;40.15;;;;;;;;;;5072400;28;20453;-74